SLCO/CIJ METAR and TAF weather

Enter ICAO airport designator
Station Type Date Time Source
SLCO METAR 2020/04/06 16:00 UTC NOAA

SLCO 061600Z 00000KT 9999 FEW023 BKN080 28/25 Q1014


Station Type Date Time Source
SLCO Decoded METAR 2020/04/06 16:00 UTC NOAA

Cobija, Bolivia (SLCO) 11-02S 068-47W 260M
Apr 06, 2020 - 12:00 PM EDT / 2020.04.06 1600 UTC
Wind: Calm:0
Visibility: greater than 7 mile(s):0
Sky conditions: mostly cloudy
Temperature: 82 F (28 C)
Dew Point: 77 F (25 C)
Relative Humidity: 83%
Pressure (altimeter): 29.94 in. Hg (1014 hPa)
ob: SLCO 061600Z 00000KT 9999 FEW023 BKN080 28/25 Q1014
cycle: 16

Station Type Date Time Source
SLCO TAF 2020/04/06 18:24 UTC NOAA

TAF SLCO 061600Z 0618/0718 33008KT 9999 SCT020 BKN080 TX32/0620Z TN23 /0710Z
TEMPO 0619/0622 7000 SHRA FEW023CB
BECMG 0623/0703 00000KT SCT012 BKN070

Example: see airport list